REH520 KRNO-KRDD
Flight info
| Callsign | REH520 |
|---|---|
| Flight time | 1h 1m |
| Altitude | 16000 |
| Route | FMG V200 MRGGO V332 RBL |
| Aircraft | BE20/L-SBGRY/S |
Departure
| Time | 2026-05-08 21:34 |
|---|---|
| Airport | Reno Tahoe International Airport (KRNO) |
Arrival
| Time | 2026-05-08 22:35 |
|---|---|
| Airport | Redding Municipal Airport (KRDD) |
| Time | Latitude | Longitude | Altitude | Speed | Heading |
|---|---|---|---|---|---|
| 2026-05-08 21:14 | 39.50185 | -119.76402 | 4419 ft | 0 kts | 90° |
| 2026-05-08 21:27 | 39.50178 | -119.76400 | 4419 ft | 4 kts | 244° |
| 2026-05-08 21:28 | 39.50179 | -119.76433 | 4419 ft | 4 kts | 278° |
| 2026-05-08 21:28 | 39.50183 | -119.76507 | 4419 ft | 11 kts | 270° |
| 2026-05-08 21:28 | 39.50157 | -119.76574 | 4419 ft | 9 kts | 183° |
| 2026-05-08 21:28 | 39.50086 | -119.76576 | 4419 ft | 12 kts | 180° |
| 2026-05-08 21:29 | 39.49996 | -119.76577 | 4419 ft | 14 kts | 180° |
| 2026-05-08 21:29 | 39.49890 | -119.76576 | 4419 ft | 16 kts | 179° |
| 2026-05-08 21:29 | 39.49774 | -119.76575 | 4419 ft | 17 kts | 182° |
| 2026-05-08 21:29 | 39.49648 | -119.76577 | 4419 ft | 18 kts | 164° |
| 2026-05-08 21:30 | 39.49580 | -119.76519 | 4419 ft | 13 kts | 181° |
| 2026-05-08 21:30 | 39.49467 | -119.76522 | 4419 ft | 18 kts | 180° |
| 2026-05-08 21:30 | 39.49327 | -119.76523 | 4419 ft | 22 kts | 180° |
| 2026-05-08 21:30 | 39.49173 | -119.76522 | 4419 ft | 23 kts | 179° |
| 2026-05-08 21:31 | 39.49021 | -119.76522 | 4419 ft | 21 kts | 180° |
| 2026-05-08 21:31 | 39.48936 | -119.76545 | 4419 ft | 11 kts | 252° |
| 2026-05-08 21:31 | 39.48939 | -119.76626 | 4419 ft | 0 kts | 271° |
| 2026-05-08 21:33 | 39.48942 | -119.76659 | 4419 ft | 11 kts | 289° |
| 2026-05-08 21:33 | 39.48998 | -119.76678 | 4419 ft | 11 kts | 1° |
| 2026-05-08 21:33 | 39.49202 | -119.76675 | 4419 ft | 53 kts | 0° |
| 2026-05-08 21:33 | 39.49745 | -119.76680 | 4420 ft | 104 kts | 358° |
| 2026-05-08 21:34 | 39.50588 | -119.76711 | 4532 ft | 133 kts | 358° |
| 2026-05-08 21:34 | 39.51516 | -119.76593 | 4949 ft | 135 kts | 14° |
| 2026-05-08 21:34 | 39.52333 | -119.76012 | 5388 ft | 136 kts | 41° |
| 2026-05-08 21:34 | 39.52912 | -119.75014 | 5758 ft | 142 kts | 61° |
| 2026-05-08 21:35 | 39.53147 | -119.73748 | 6025 ft | 153 kts | 89° |
| 2026-05-08 21:35 | 39.52876 | -119.72350 | 6149 ft | 166 kts | 114° |
| 2026-05-08 21:35 | 39.52277 | -119.71074 | 6433 ft | 164 kts | 126° |
| 2026-05-08 21:35 | 39.51702 | -119.69823 | 6746 ft | 163 kts | 107° |
| 2026-05-08 21:36 | 39.51801 | -119.68421 | 7149 ft | 156 kts | 66° |
| 2026-05-08 21:36 | 39.52334 | -119.67238 | 7542 ft | 158 kts | 57° |
| 2026-05-08 21:36 | 39.52929 | -119.65965 | 7957 ft | 168 kts | 56° |
| 2026-05-08 21:36 | 39.53829 | -119.65009 | 8385 ft | 172 kts | 17° |
| 2026-05-08 21:37 | 39.54996 | -119.64999 | 8814 ft | 174 kts | 338° |
| 2026-05-08 21:37 | 39.55928 | -119.65955 | 9246 ft | 175 kts | 300° |
| 2026-05-08 21:37 | 39.56188 | -119.67463 | 9680 ft | 175 kts | 262° |
| 2026-05-08 21:37 | 39.55695 | -119.68896 | 10125 ft | 177 kts | 235° |
| 2026-05-08 21:38 | 39.54744 | -119.69903 | 10546 ft | 182 kts | 202° |
| 2026-05-08 21:38 | 39.53479 | -119.69970 | 10985 ft | 189 kts | 167° |
| 2026-05-08 21:38 | 39.52212 | -119.69459 | 11416 ft | 191 kts | 174° |
| 2026-05-08 21:38 | 39.50938 | -119.69695 | 11836 ft | 185 kts | 210° |
| 2026-05-08 21:39 | 39.50043 | -119.70808 | 12259 ft | 178 kts | 244° |
| 2026-05-08 21:39 | 39.49829 | -119.72363 | 12710 ft | 178 kts | 273° |
| 2026-05-08 21:39 | 39.49994 | -119.73960 | 13149 ft | 181 kts | 278° |
| 2026-05-08 21:39 | 39.50209 | -119.75580 | 13536 ft | 186 kts | 278° |
| 2026-05-08 21:40 | 39.50416 | -119.77254 | 13835 ft | 190 kts | 277° |
| 2026-05-08 21:40 | 39.50565 | -119.78959 | 14167 ft | 192 kts | 272° |
| 2026-05-08 21:40 | 39.50555 | -119.80707 | 14503 ft | 195 kts | 266° |
| 2026-05-08 21:41 | 39.50088 | -119.84203 | 15156 ft | 198 kts | 257° |
| 2026-05-08 21:41 | 39.49723 | -119.85945 | 15436 ft | 205 kts | 255° |
| 2026-05-08 21:41 | 39.49309 | -119.87720 | 15671 ft | 212 kts | 254° |
| 2026-05-08 21:41 | 39.48854 | -119.89576 | 15862 ft | 219 kts | 253° |
| 2026-05-08 21:42 | 39.48407 | -119.91478 | 15972 ft | 223 kts | 256° |
| 2026-05-08 21:42 | 39.48015 | -119.93455 | 16029 ft | 231 kts | 257° |
| 2026-05-08 21:42 | 39.47632 | -119.95507 | 16025 ft | 239 kts | 257° |
| 2026-05-08 21:42 | 39.47246 | -119.97629 | 16021 ft | 243 kts | 257° |
| 2026-05-08 21:43 | 39.46848 | -119.99767 | 16029 ft | 246 kts | 257° |
| 2026-05-08 21:43 | 39.46448 | -120.01928 | 16020 ft | 248 kts | 257° |
| 2026-05-08 21:43 | 39.46052 | -120.04103 | 16028 ft | 249 kts | 257° |
| 2026-05-08 21:43 | 39.45650 | -120.06288 | 16033 ft | 250 kts | 257° |
| 2026-05-08 21:44 | 39.45243 | -120.08476 | 16036 ft | 250 kts | 257° |
| 2026-05-08 21:44 | 39.44826 | -120.10661 | 16047 ft | 252 kts | 257° |
| 2026-05-08 21:44 | 39.44406 | -120.12850 | 16047 ft | 253 kts | 257° |
| 2026-05-08 21:44 | 39.43984 | -120.15055 | 16044 ft | 251 kts | 257° |
| 2026-05-08 21:45 | 39.43567 | -120.17239 | 16049 ft | 250 kts | 257° |
| 2026-05-08 21:45 | 39.43153 | -120.19424 | 16057 ft | 252 kts | 257° |
| 2026-05-08 21:45 | 39.42733 | -120.21645 | 16018 ft | 256 kts | 257° |
| 2026-05-08 21:45 | 39.42313 | -120.23875 | 15996 ft | 254 kts | 257° |
| 2026-05-08 21:46 | 39.41895 | -120.26094 | 15997 ft | 253 kts | 257° |
| 2026-05-08 21:46 | 39.41479 | -120.28313 | 16000 ft | 255 kts | 257° |
| 2026-05-08 21:46 | 39.41058 | -120.30550 | 16001 ft | 256 kts | 257° |
| 2026-05-08 21:46 | 39.40632 | -120.32786 | 16001 ft | 257 kts | 257° |
| 2026-05-08 21:47 | 39.40208 | -120.35035 | 16002 ft | 256 kts | 257° |
| 2026-05-08 21:47 | 39.39785 | -120.37265 | 16002 ft | 256 kts | 257° |
| 2026-05-08 21:47 | 39.39368 | -120.39502 | 16002 ft | 256 kts | 257° |
| 2026-05-08 21:47 | 39.38944 | -120.41741 | 16002 ft | 256 kts | 257° |
| 2026-05-08 21:48 | 39.38513 | -120.43982 | 16003 ft | 257 kts | 257° |
| 2026-05-08 21:48 | 39.38085 | -120.46221 | 16005 ft | 257 kts | 257° |
| 2026-05-08 21:48 | 39.37656 | -120.48468 | 16017 ft | 259 kts | 257° |
| 2026-05-08 21:48 | 39.37224 | -120.50713 | 16013 ft | 263 kts | 257° |
| 2026-05-08 21:49 | 39.36784 | -120.53014 | 15997 ft | 263 kts | 257° |
| 2026-05-08 21:49 | 39.36342 | -120.55299 | 16004 ft | 263 kts | 257° |
| 2026-05-08 21:49 | 39.35902 | -120.57592 | 16004 ft | 263 kts | 257° |
| 2026-05-08 21:49 | 39.35467 | -120.59881 | 15999 ft | 262 kts | 257° |
| 2026-05-08 21:50 | 39.35036 | -120.62155 | 16002 ft | 260 kts | 257° |
| 2026-05-08 21:50 | 39.34602 | -120.64425 | 16004 ft | 260 kts | 257° |
| 2026-05-08 21:50 | 39.34170 | -120.66679 | 16008 ft | 259 kts | 257° |
| 2026-05-08 21:50 | 39.33741 | -120.68943 | 16008 ft | 259 kts | 257° |
| 2026-05-08 21:51 | 39.33309 | -120.71205 | 16005 ft | 259 kts | 256° |
| 2026-05-08 21:51 | 39.32876 | -120.73429 | 16003 ft | 259 kts | 256° |
| 2026-05-08 21:51 | 39.32434 | -120.75675 | 16001 ft | 258 kts | 256° |
| 2026-05-08 21:51 | 39.31992 | -120.77923 | 15998 ft | 258 kts | 256° |
| 2026-05-08 21:52 | 39.31558 | -120.80176 | 15993 ft | 258 kts | 257° |
| 2026-05-08 21:52 | 39.31123 | -120.82435 | 15991 ft | 258 kts | 257° |
| 2026-05-08 21:52 | 39.30691 | -120.84681 | 15987 ft | 258 kts | 257° |
| 2026-05-08 21:52 | 39.30250 | -120.86934 | 15976 ft | 259 kts | 256° |
| 2026-05-08 21:53 | 39.29811 | -120.89181 | 15962 ft | 259 kts | 256° |
| 2026-05-08 21:53 | 39.29370 | -120.91445 | 15952 ft | 260 kts | 256° |
| 2026-05-08 21:53 | 39.28927 | -120.93716 | 15937 ft | 262 kts | 256° |
| 2026-05-08 21:53 | 39.28483 | -120.95995 | 15923 ft | 261 kts | 256° |
| 2026-05-08 21:54 | 39.28038 | -120.98260 | 15918 ft | 260 kts | 256° |
| 2026-05-08 21:54 | 39.27595 | -121.00528 | 15917 ft | 261 kts | 256° |
| 2026-05-08 21:54 | 39.27151 | -121.02806 | 15912 ft | 262 kts | 256° |
| 2026-05-08 21:54 | 39.26715 | -121.05047 | 15906 ft | 260 kts | 256° |
| 2026-05-08 21:55 | 39.26271 | -121.07324 | 15908 ft | 257 kts | 256° |
| 2026-05-08 21:55 | 39.25840 | -121.09532 | 15907 ft | 256 kts | 256° |
| 2026-05-08 21:55 | 39.25400 | -121.11763 | 15905 ft | 257 kts | 256° |
| 2026-05-08 21:56 | 39.24516 | -121.16240 | 15898 ft | 258 kts | 256° |
| 2026-05-08 21:56 | 39.24078 | -121.18477 | 15892 ft | 257 kts | 256° |
| 2026-05-08 21:56 | 39.23637 | -121.20719 | 15885 ft | 258 kts | 256° |
| 2026-05-08 21:56 | 39.23196 | -121.22957 | 15877 ft | 257 kts | 256° |
| 2026-05-08 21:57 | 39.22752 | -121.25199 | 15869 ft | 257 kts | 256° |
| 2026-05-08 21:57 | 39.22341 | -121.27446 | 15862 ft | 258 kts | 262° |
| 2026-05-08 21:57 | 39.22489 | -121.29742 | 15847 ft | 260 kts | 286° |
| 2026-05-08 21:57 | 39.23413 | -121.31734 | 15842 ft | 263 kts | 311° |
| 2026-05-08 21:58 | 39.24914 | -121.33108 | 15848 ft | 267 kts | 328° |
| 2026-05-08 21:58 | 39.26022 | -121.33813 | 15847 ft | 268 kts | 331° |
| 2026-05-08 21:58 | 39.27713 | -121.34821 | 15845 ft | 267 kts | 331° |
| 2026-05-08 21:58 | 39.29374 | -121.35890 | 15843 ft | 266 kts | 328° |
| 2026-05-08 21:59 | 39.30991 | -121.37061 | 15840 ft | 265 kts | 326° |
| 2026-05-08 21:59 | 39.32549 | -121.38329 | 15837 ft | 264 kts | 323° |
| 2026-05-08 21:59 | 39.34062 | -121.39685 | 15837 ft | 264 kts | 321° |
| 2026-05-08 21:59 | 39.35532 | -121.41100 | 15836 ft | 263 kts | 319° |
| 2026-05-08 22:00 | 39.36973 | -121.42563 | 15831 ft | 263 kts | 318° |
| 2026-05-08 22:00 | 39.38393 | -121.44058 | 15829 ft | 264 kts | 317° |
| 2026-05-08 22:00 | 39.39806 | -121.45586 | 15825 ft | 265 kts | 316° |
| 2026-05-08 22:00 | 39.41215 | -121.47135 | 15820 ft | 265 kts | 316° |
| 2026-05-08 22:01 | 39.42592 | -121.48666 | 15822 ft | 264 kts | 316° |
| 2026-05-08 22:01 | 39.43977 | -121.50219 | 15824 ft | 263 kts | 316° |
| 2026-05-08 22:01 | 39.45359 | -121.51774 | 15825 ft | 263 kts | 315° |
| 2026-05-08 22:01 | 39.46740 | -121.53329 | 15826 ft | 263 kts | 315° |
| 2026-05-08 22:02 | 39.48116 | -121.54884 | 15826 ft | 263 kts | 315° |
| 2026-05-08 22:02 | 39.49491 | -121.56443 | 15834 ft | 264 kts | 315° |
| 2026-05-08 22:02 | 39.50882 | -121.58024 | 15830 ft | 266 kts | 315° |
| 2026-05-08 22:02 | 39.52275 | -121.59607 | 15821 ft | 266 kts | 315° |
| 2026-05-08 22:03 | 39.53662 | -121.61184 | 15824 ft | 265 kts | 315° |
| 2026-05-08 22:03 | 39.55043 | -121.62755 | 15826 ft | 264 kts | 315° |
| 2026-05-08 22:03 | 39.56423 | -121.64325 | 15826 ft | 263 kts | 315° |
| 2026-05-08 22:03 | 39.57798 | -121.65893 | 15825 ft | 263 kts | 315° |
| 2026-05-08 22:04 | 39.59152 | -121.67439 | 15825 ft | 263 kts | 315° |
| 2026-05-08 22:04 | 39.60522 | -121.69003 | 15825 ft | 262 kts | 315° |
| 2026-05-08 22:04 | 39.61897 | -121.70574 | 15824 ft | 262 kts | 315° |
| 2026-05-08 22:04 | 39.63266 | -121.72137 | 15822 ft | 262 kts | 315° |
| 2026-05-08 22:05 | 39.64637 | -121.73705 | 15820 ft | 262 kts | 315° |
| 2026-05-08 22:05 | 39.66011 | -121.75267 | 15818 ft | 263 kts | 316° |
| 2026-05-08 22:05 | 39.67400 | -121.76806 | 15816 ft | 263 kts | 316° |
| 2026-05-08 22:05 | 39.68800 | -121.78337 | 15814 ft | 263 kts | 316° |
| 2026-05-08 22:06 | 39.70201 | -121.79863 | 15812 ft | 263 kts | 316° |
| 2026-05-08 22:06 | 39.71601 | -121.81387 | 15810 ft | 263 kts | 316° |
| 2026-05-08 22:06 | 39.72985 | -121.82894 | 15809 ft | 263 kts | 316° |
| 2026-05-08 22:06 | 39.74385 | -121.84424 | 15807 ft | 263 kts | 316° |
| 2026-05-08 22:07 | 39.75779 | -121.85950 | 15807 ft | 262 kts | 316° |
| 2026-05-08 22:07 | 39.77178 | -121.87485 | 15818 ft | 264 kts | 316° |
| 2026-05-08 22:07 | 39.78597 | -121.89045 | 15811 ft | 268 kts | 316° |
| 2026-05-08 22:07 | 39.80019 | -121.90609 | 15799 ft | 267 kts | 316° |
| 2026-05-08 22:08 | 39.81439 | -121.92169 | 15804 ft | 266 kts | 316° |
| 2026-05-08 22:08 | 39.82847 | -121.93718 | 15813 ft | 266 kts | 316° |
| 2026-05-08 22:08 | 39.84260 | -121.95276 | 15811 ft | 267 kts | 316° |
| 2026-05-08 22:08 | 39.85675 | -121.96834 | 15806 ft | 266 kts | 316° |
| 2026-05-08 22:09 | 39.87082 | -121.98384 | 15809 ft | 265 kts | 316° |
| 2026-05-08 22:09 | 39.88485 | -121.99933 | 15811 ft | 264 kts | 316° |
| 2026-05-08 22:09 | 39.89887 | -122.01480 | 15813 ft | 263 kts | 316° |
| 2026-05-08 22:09 | 39.91284 | -122.03023 | 15813 ft | 263 kts | 316° |
| 2026-05-08 22:10 | 39.92680 | -122.04565 | 15814 ft | 263 kts | 316° |
| 2026-05-08 22:10 | 39.94058 | -122.06089 | 15815 ft | 263 kts | 316° |
| 2026-05-08 22:10 | 39.95453 | -122.07634 | 15815 ft | 263 kts | 316° |
| 2026-05-08 22:10 | 39.96841 | -122.09170 | 15815 ft | 263 kts | 316° |
| 2026-05-08 22:11 | 39.98241 | -122.10719 | 15814 ft | 262 kts | 316° |
| 2026-05-08 22:11 | 39.99634 | -122.12261 | 15813 ft | 262 kts | 316° |
| 2026-05-08 22:11 | 40.01024 | -122.13801 | 15809 ft | 263 kts | 316° |
| 2026-05-08 22:11 | 40.02406 | -122.15332 | 15799 ft | 260 kts | 316° |
| 2026-05-08 22:12 | 40.03771 | -122.16842 | 15759 ft | 255 kts | 316° |
| 2026-05-08 22:12 | 40.05135 | -122.18355 | 15427 ft | 260 kts | 316° |
| 2026-05-08 22:12 | 40.06522 | -122.19896 | 15052 ft | 260 kts | 316° |
| 2026-05-08 22:12 | 40.07834 | -122.21343 | 14775 ft | 228 kts | 316° |
| 2026-05-08 22:13 | 40.08996 | -122.22621 | 14408 ft | 218 kts | 315° |
| 2026-05-08 22:13 | 40.10159 | -122.23916 | 14033 ft | 220 kts | 315° |
| 2026-05-08 22:13 | 40.11310 | -122.25200 | 13656 ft | 215 kts | 316° |
| 2026-05-08 22:13 | 40.12446 | -122.26467 | 13280 ft | 215 kts | 316° |
| 2026-05-08 22:14 | 40.13441 | -122.27882 | 12892 ft | 209 kts | 298° |
| 2026-05-08 22:14 | 40.14100 | -122.29560 | 12540 ft | 210 kts | 300° |
| 2026-05-08 22:14 | 40.15224 | -122.30798 | 12159 ft | 218 kts | 330° |
| 2026-05-08 22:14 | 40.16719 | -122.31198 | 11791 ft | 222 kts | 353° |
| 2026-05-08 22:15 | 40.18260 | -122.31229 | 11418 ft | 221 kts | 357° |
| 2026-05-08 22:15 | 40.19793 | -122.31265 | 11042 ft | 219 kts | 355° |
| 2026-05-08 22:15 | 40.21312 | -122.31406 | 10667 ft | 218 kts | 352° |
| 2026-05-08 22:15 | 40.22812 | -122.31658 | 10293 ft | 217 kts | 349° |
| 2026-05-08 22:16 | 40.24303 | -122.32003 | 9917 ft | 217 kts | 347° |
| 2026-05-08 22:16 | 40.25778 | -122.32414 | 9548 ft | 217 kts | 346° |
| 2026-05-08 22:16 | 40.27243 | -122.32870 | 9174 ft | 217 kts | 345° |
| 2026-05-08 22:16 | 40.28712 | -122.33361 | 8792 ft | 217 kts | 344° |
| 2026-05-08 22:17 | 40.30168 | -122.33868 | 8417 ft | 216 kts | 344° |
| 2026-05-08 22:17 | 40.31616 | -122.34388 | 8047 ft | 216 kts | 344° |
| 2026-05-08 22:17 | 40.33063 | -122.34916 | 7671 ft | 215 kts | 343° |
| 2026-05-08 22:17 | 40.34478 | -122.35437 | 7299 ft | 215 kts | 343° |
| 2026-05-08 22:18 | 40.35906 | -122.35968 | 7092 ft | 207 kts | 343° |
| 2026-05-08 22:18 | 40.37269 | -122.36476 | 7030 ft | 202 kts | 343° |
| 2026-05-08 22:18 | 40.38630 | -122.36987 | 7006 ft | 205 kts | 343° |
| 2026-05-08 22:18 | 40.39992 | -122.37498 | 6982 ft | 201 kts | 343° |
| 2026-05-08 22:19 | 40.41318 | -122.37997 | 6991 ft | 197 kts | 343° |
| 2026-05-08 22:19 | 40.42646 | -122.38496 | 6998 ft | 199 kts | 343° |
| 2026-05-08 22:19 | 40.43970 | -122.38995 | 6995 ft | 196 kts | 343° |
| 2026-05-08 22:19 | 40.45261 | -122.39482 | 6996 ft | 195 kts | 343° |
| 2026-05-08 22:20 | 40.46567 | -122.39974 | 6996 ft | 195 kts | 343° |
| 2026-05-08 22:20 | 40.47862 | -122.40463 | 6992 ft | 194 kts | 343° |
| 2026-05-08 22:20 | 40.49243 | -122.40989 | 6968 ft | 213 kts | 343° |
| 2026-05-08 22:20 | 40.50686 | -122.41542 | 6994 ft | 219 kts | 343° |
| 2026-05-08 22:21 | 40.52161 | -122.42103 | 6996 ft | 221 kts | 343° |
| 2026-05-08 22:21 | 40.53636 | -122.42663 | 6997 ft | 221 kts | 343° |
| 2026-05-08 22:21 | 40.55120 | -122.43225 | 6998 ft | 222 kts | 343° |
| 2026-05-08 22:21 | 40.56610 | -122.43789 | 6998 ft | 222 kts | 343° |
| 2026-05-08 22:22 | 40.58099 | -122.44351 | 7000 ft | 222 kts | 343° |
| 2026-05-08 22:22 | 40.59584 | -122.44914 | 7001 ft | 223 kts | 343° |
| 2026-05-08 22:22 | 40.61074 | -122.45478 | 7003 ft | 223 kts | 343° |
| 2026-05-08 22:22 | 40.62568 | -122.46043 | 7006 ft | 223 kts | 343° |
| 2026-05-08 22:23 | 40.64033 | -122.46596 | 7079 ft | 205 kts | 343° |
| 2026-05-08 22:23 | 40.65327 | -122.47083 | 7036 ft | 186 kts | 343° |
| 2026-05-08 22:23 | 40.66543 | -122.47540 | 7006 ft | 185 kts | 343° |
| 2026-05-08 22:23 | 40.67792 | -122.48013 | 7003 ft | 186 kts | 343° |
| 2026-05-08 22:24 | 40.68999 | -122.48469 | 6990 ft | 175 kts | 343° |
| 2026-05-08 22:24 | 40.70169 | -122.48914 | 7020 ft | 176 kts | 343° |
| 2026-05-08 22:24 | 40.71363 | -122.49353 | 7015 ft | 179 kts | 346° |
| 2026-05-08 22:24 | 40.72596 | -122.49192 | 7012 ft | 182 kts | 21° |
| 2026-05-08 22:25 | 40.73517 | -122.48088 | 7013 ft | 181 kts | 58° |
| 2026-05-08 22:25 | 40.73995 | -122.46552 | 7053 ft | 183 kts | 70° |
| 2026-05-08 22:25 | 40.74471 | -122.44962 | 7028 ft | 188 kts | 65° |
| 2026-05-08 22:25 | 40.75091 | -122.43437 | 7011 ft | 187 kts | 58° |
| 2026-05-08 22:26 | 40.75804 | -122.42056 | 7010 ft | 178 kts | 53° |
| 2026-05-08 22:26 | 40.76560 | -122.40789 | 7043 ft | 176 kts | 50° |
| 2026-05-08 22:26 | 40.77358 | -122.39551 | 7032 ft | 178 kts | 48° |
| 2026-05-08 22:26 | 40.77976 | -122.38149 | 7022 ft | 179 kts | 74° |
| 2026-05-08 22:27 | 40.78143 | -122.36550 | 7021 ft | 174 kts | 86° |
| 2026-05-08 22:27 | 40.78216 | -122.34957 | 6914 ft | 177 kts | 86° |
| 2026-05-08 22:27 | 40.78334 | -122.33316 | 6652 ft | 185 kts | 83° |
| 2026-05-08 22:27 | 40.78520 | -122.31594 | 6377 ft | 189 kts | 81° |
| 2026-05-08 22:28 | 40.78572 | -122.29888 | 6090 ft | 190 kts | 101° |
| 2026-05-08 22:28 | 40.77936 | -122.28394 | 5817 ft | 189 kts | 136° |
| 2026-05-08 22:28 | 40.76776 | -122.27659 | 5544 ft | 187 kts | 172° |
| 2026-05-08 22:28 | 40.75509 | -122.27874 | 5291 ft | 185 kts | 198° |
| 2026-05-08 22:29 | 40.74300 | -122.28464 | 5022 ft | 185 kts | 202° |
| 2026-05-08 22:29 | 40.73098 | -122.29039 | 4886 ft | 182 kts | 198° |
| 2026-05-08 22:29 | 40.71862 | -122.29380 | 4727 ft | 183 kts | 187° |
| 2026-05-08 22:29 | 40.70574 | -122.29463 | 4478 ft | 187 kts | 181° |
| 2026-05-08 22:30 | 40.69298 | -122.29470 | 4290 ft | 164 kts | 180° |
| 2026-05-08 22:30 | 40.68294 | -122.29456 | 4041 ft | 135 kts | 180° |
| 2026-05-08 22:30 | 40.67368 | -122.29448 | 3779 ft | 132 kts | 181° |
| 2026-05-08 22:30 | 40.66461 | -122.29447 | 3531 ft | 132 kts | 181° |
| 2026-05-08 22:31 | 40.65535 | -122.29449 | 3274 ft | 131 kts | 181° |
| 2026-05-08 22:31 | 40.64642 | -122.29451 | 3095 ft | 128 kts | 181° |
| 2026-05-08 22:31 | 40.63744 | -122.29453 | 2856 ft | 131 kts | 181° |
| 2026-05-08 22:31 | 40.62828 | -122.29456 | 2587 ft | 132 kts | 181° |
| 2026-05-08 22:32 | 40.61907 | -122.29458 | 2288 ft | 131 kts | 181° |
| 2026-05-08 22:32 | 40.61000 | -122.29460 | 2007 ft | 129 kts | 182° |
| 2026-05-08 22:32 | 40.60115 | -122.29462 | 1818 ft | 124 kts | 182° |
| 2026-05-08 22:32 | 40.59265 | -122.29464 | 1656 ft | 121 kts | 182° |
| 2026-05-08 22:33 | 40.58431 | -122.29467 | 1500 ft | 119 kts | 182° |
| 2026-05-08 22:33 | 40.57608 | -122.29470 | 1347 ft | 118 kts | 182° |
| 2026-05-08 22:33 | 40.56789 | -122.29472 | 1218 ft | 116 kts | 182° |
| 2026-05-08 22:33 | 40.55989 | -122.29474 | 1109 ft | 114 kts | 182° |
| 2026-05-08 22:34 | 40.55207 | -122.29476 | 1016 ft | 111 kts | 182° |
| 2026-05-08 22:34 | 40.54448 | -122.29462 | 977 ft | 107 kts | 179° |
| 2026-05-08 22:34 | 40.53708 | -122.29429 | 904 ft | 105 kts | 182° |
| 2026-05-08 22:34 | 40.52996 | -122.29467 | 748 ft | 99 kts | 186° |
| 2026-05-08 22:35 | 40.52327 | -122.29495 | 565 ft | 97 kts | 182° |
| 2026-05-08 22:35 | 40.51622 | -122.29469 | 509 ft | 105 kts | 182° |
| 2026-05-08 22:35 | 40.50946 | -122.29471 | 507 ft | 84 kts | 186° |
| 2026-05-08 22:35 | 40.50508 | -122.29496 | 506 ft | 39 kts | 183° |
| 2026-05-08 22:36 | 40.50326 | -122.29499 | 506 ft | 25 kts | 180° |
| 2026-05-08 22:36 | 40.50164 | -122.29504 | 506 ft | 17 kts | 186° |
| 2026-05-08 22:36 | 40.50134 | -122.29610 | 506 ft | 14 kts | 319° |
| 2026-05-08 22:36 | 40.50234 | -122.29654 | 506 ft | 16 kts | 315° |
| 2026-05-08 22:37 | 40.50326 | -122.29770 | 506 ft | 18 kts | 321° |
| 2026-05-08 22:37 | 40.50344 | -122.29879 | 506 ft | 14 kts | 240° |
| 2026-05-08 22:37 | 40.50404 | -122.29888 | 506 ft | 17 kts | 16° |
| 2026-05-08 22:37 | 40.50545 | -122.29853 | 506 ft | 24 kts | 5° |
| 2026-05-08 22:38 | 40.50706 | -122.29865 | 506 ft | 21 kts | 349° |
| 2026-05-08 22:38 | 40.50820 | -122.29911 | 506 ft | 10 kts | 322° |
| 2026-05-08 22:38 | 40.50812 | -122.29953 | 506 ft | 0 kts | 179° |